Terminal Aerodrome Forecast
Issued by NWS Topeka, KS

Home | Current Version | Previous Version | Text Only | Print | Product List | Glossary Off
Versions: 1 2 3 4 5 6 7 8 9 10 11 12 13 14 15 16 17 18 19

392
FTUS43 KTOP 270951 AAB
TAFTOP
TAF AMD
KTOP 270951Z 2710/2806 06008KT P6SM SCT040 OVC100
     FM271300 15010KT P6SM BKN025
     FM271700 17009KT P6SM SCT020 BKN035
     FM271900 13010KT P6SM VCTS SCT020 BKN040CB=

USA.gov is the U.S. government's official web portal to all federal, state and local government web resources and services.